This is the latest recevied weather packets stored in our database for station/object LX1CU-13. If no packets are shown the sender has not sent any weather packets the latest 10 day(s).
| Time | Temp. | Humidity | Pressure | Rain* | Wind** | Luminosity | Snow |
|---|---|---|---|---|---|---|---|
| 1777840117 | 10° C | 81% | 1009.5 hPa | 0 mm | - | - | - |
| 1777839817 | 10° C | 81% | 1009.5 hPa | 0 mm | - | - | - |
| 1777833217 | 14.44° C | 73% | 1009.4 hPa | 0 mm | - | - | - |
| 1777830818 | 15° C | 72% | 1009.1 hPa | 0 mm | - | - | - |
| 1777829618 | 15.56° C | 71% | 1009.1 hPa | 0 mm | - | - | - |
| 1777829318 | 15.56° C | 71% | 1009 hPa | 0 mm | - | - | - |
| 1777829018 | 15° C | 72% | 1009 hPa | 0 mm | - | - | - |
| 1777828418 | 15° C | 72% | 1009 hPa | 0 mm | - | - | - |
| 1777827818 | 15° C | 71% | 1009 hPa | 0 mm | - | - | - |
| 1777827218 | 15.56° C | 71% | 1009.1 hPa | 0 mm | - | - | - |
| 1777826918 | 15.56° C | 71% | 1009.1 hPa | 0 mm | - | - | - |
| 1777826318 | 15.56° C | 70% | 1009.3 hPa | 0 mm | - | - | - |
| 1777826018 | 15.56° C | 70% | 1009.3 hPa | 0 mm | - | - | - |
| 1777825718 | 16.11° C | 71% | 1009.3 hPa | 0 mm | - | - | - |
| 1777825118 | 16.11° C | 71% | 1009.4 hPa | 0 mm | - | - | - |
| 1777824518 | 16.11° C | 73% | 1009.4 hPa | 0 mm | - | - | - |
| 1777823918 | 15.56° C | 74% | 1009.4 hPa | 0 mm | - | - | - |
| 1777822118 | 15° C | 77% | 1009.8 hPa | 0 mm | - | - | - |
| 1777821818 | 15° C | 77% | 1009.9 hPa | 0 mm | - | - | - |
| 1777821518 | 15.56° C | 76% | 1009.8 hPa | 0 mm | - | - | - |
| 1777820318 | 15.56° C | 76% | 1009.8 hPa | 0 mm | - | - | - |
| 1777819718 | 15.56° C | 76% | 1009.8 hPa | 0 mm | - | - | - |
| 1777819118 | 15.56° C | 77% | 1009.9 hPa | 0 mm | - | - | - |
| 1777818518 | 15.56° C | 77% | 1009.9 hPa | 0 mm | - | - | - |
| 1777817918 | 15° C | 79% | 1009.9 hPa | 0 mm | - | - | - |
* Rain latest hour (hover to see other rain measurements)
** Current wind speed in m/s (hover to see current wind gust speed)